Weather at Palm Beach County Park Airport

Public forecast

Using degrees Fahrenheit for public forecast. Weather courtesy of forecast.io.

Closest aviation weather report (METAR) to Palm Beach County Park Airport

Closest report is Palm Beach International Airport, 5.4 nm (10.1 km) N. Retrieved 2021/04/12 14:53 UTC (55 minutes ago):

KPBI 121453Z 32007KT 10SM SCT047 BKN065 BKN100 24/20 A2990 RMK AO2 SLP126 60033 T02390200 53010

Closest aviation forecast (TAF) to Palm Beach County Park Airport

Closest forecast is Palm Beach International Airport, 5.4 nm (10.1 km) N. Retrieved 2021/04/12 12:26 UTC (3 hours ago):

TAF KPBI 121120Z 1212/1312 25008KT P6SM VCTS SCT025CB BKN035 TEMPO 1212/1214 4SM TSRA BKN025CB OVC035 FM121600 28009KT P6SM BKN020 FM130000 05007KT P6SM FEW050